createdAt,value
2023-01-19T00:03:06.847Z,99303.56
2023-01-19T00:08:17.987Z,99319.28
2023-01-19T00:13:20.008Z,99311.44
2023-01-19T00:18:22.067Z,99324.50
2023-01-19T00:23:24.375Z,99320.16
2023-01-19T00:28:26.319Z,99332.34
2023-01-19T00:33:28.760Z,99357.63
2023-01-19T00:38:30.895Z,99368.06
2023-01-19T00:43:32.891Z,99378.50
2023-01-19T00:48:35.008Z,99398.56
2023-01-19T00:53:37.012Z,99391.59
2023-01-19T00:58:39.065Z,99399.47
2023-01-19T01:03:41.353Z,99398.59
2023-01-19T01:08:43.398Z,99394.19
2023-01-19T01:13:45.364Z,99405.56
2023-01-19T01:18:47.901Z,99395.06
2023-01-19T01:23:49.932Z,99396.84
2023-01-19T01:28:51.990Z,99395.97
2023-01-19T01:33:54.033Z,99391.63
2023-01-19T01:38:56.187Z,99397.75
2023-01-19T01:44:00.306Z,99396.84
2023-01-19T01:49:12.704Z,99395.94
2023-01-19T01:54:28.073Z,99390.72
2023-01-19T01:59:40.579Z,99396.00
2023-01-19T02:04:49.600Z,99392.53
2023-01-19T02:10:10.503Z,99401.22
2023-01-19T02:15:17.693Z,99400.38
2023-01-19T02:20:24.763Z,99403.00
2023-01-19T02:25:27.241Z,99398.63
2023-01-19T02:30:29.888Z,99390.78
2023-01-19T02:35:33.250Z,99381.16
2023-01-19T02:40:37.241Z,99386.44
2023-01-19T02:45:40.502Z,99376.81
2023-01-19T02:50:50.085Z,99373.38
2023-01-19T02:56:01.681Z,99373.38
2023-01-19T03:01:31.946Z,99364.66
2023-01-19T03:06:39.729Z,99374.28
2023-01-19T03:11:47.379Z,99364.66
2023-01-19T03:16:57.764Z,99377.75
2023-01-19T03:22:07.627Z,99382.06
2023-01-19T03:27:18.781Z,99397.75
2023-01-19T03:32:24.627Z,99402.13
2023-01-19T03:37:29.870Z,99392.56
2023-01-19T03:42:33.149Z,99389.03
2023-01-19T03:47:36.765Z,99401.28
2023-01-19T03:52:38.706Z,99404.75
2023-01-19T03:57:40.908Z,99403.88
2023-01-19T04:02:43.043Z,99403.88
2023-01-19T04:07:45.155Z,99409.09
2023-01-19T04:12:47.158Z,99418.69
2023-01-19T04:17:49.161Z,99417.78
2023-01-19T04:22:51.159Z,99423.06
2023-01-19T04:27:53.985Z,99428.31
2023-01-19T04:32:56.637Z,99425.66
2023-01-19T04:37:58.654Z,99431.75
2023-01-19T04:43:00.996Z,99441.34
2023-01-19T04:48:07.233Z,99448.31
2023-01-19T04:53:09.258Z,99459.69
2023-01-19T04:58:11.327Z,99460.56
2023-01-19T05:03:13.464Z,99460.53
2023-01-19T05:08:15.647Z,99473.63
2023-01-19T05:13:17.637Z,99473.66
2023-01-19T05:18:19.674Z,99479.75
2023-01-19T05:23:21.760Z,99485.84
2023-01-19T05:28:23.927Z,99498.06
2023-01-19T05:33:26.498Z,99499.75
2023-01-19T05:38:35.143Z,99512.00
2023-01-19T05:43:37.857Z,99516.31
2023-01-19T05:48:40.310Z,99537.28
2023-01-19T05:53:42.487Z,99544.22
2023-01-19T05:58:44.593Z,99550.38
2023-01-19T06:03:47.656Z,99546.84
2023-01-19T06:08:49.574Z,99561.72
2023-01-19T06:13:51.714Z,99565.22
2023-01-19T06:18:54.062Z,99572.16
2023-01-19T06:23:56.123Z,99580.00
2023-01-19T06:28:58.154Z,99596.63
2023-01-19T06:34:00.117Z,99599.19
2023-01-19T06:39:06.252Z,99609.66
2023-01-19T06:44:08.413Z,99621.03
2023-01-19T06:49:10.502Z,99623.59
2023-01-19T06:54:12.651Z,99617.47
2023-01-19T06:59:14.893Z,99623.66
2023-01-19T07:04:16.924Z,99623.63
2023-01-19T07:09:20.803Z,99628.88
2023-01-19T07:14:22.921Z,99609.66
2023-01-19T07:19:25.126Z,99613.13
2023-01-19T07:24:27.130Z,99630.63
2023-01-19T07:29:29.365Z,99628.88
2023-01-19T07:34:31.568Z,99626.28
2023-01-19T07:39:33.552Z,99626.28
2023-01-19T07:44:35.570Z,99635.84
2023-01-19T07:49:37.681Z,99643.75
2023-01-19T07:54:39.764Z,99649.00
2023-01-19T07:59:41.890Z,99656.84
2023-01-19T08:04:43.989Z,99651.63
2023-01-19T08:09:46.071Z,99657.69
2023-01-19T08:14:48.158Z,99661.25
2023-01-19T08:19:50.146Z,99676.97
2023-01-19T08:24:52.411Z,99679.59
2023-01-19T08:29:54.985Z,99676.97
2023-01-19T08:34:57.058Z,99678.72
2023-01-19T08:39:59.249Z,99686.66
2023-01-19T08:45:01.388Z,99690.13
2023-01-19T08:50:03.590Z,99684.91
2023-01-19T08:55:06.338Z,99681.41
2023-01-19T09:00:09.445Z,99691.91
2023-01-19T09:05:11.435Z,99689.28
2023-01-19T09:10:13.971Z,99693.72
2023-01-19T09:15:16.212Z,99689.38
2023-01-19T09:20:18.403Z,99692.84
2023-01-19T09:25:21.053Z,99695.50
2023-01-19T09:30:23.440Z,99699.88
2023-01-19T09:35:25.665Z,99701.66
2023-01-19T09:40:28.322Z,99701.72
2023-01-19T09:45:46.352Z,99689.50
2023-01-19T09:50:49.855Z,99694.78
2023-01-19T09:55:51.792Z,99688.69
2023-01-19T10:01:03.152Z,99693.94
2023-01-19T10:06:09.711Z,99682.66
2023-01-19T10:11:52.104Z,99682.66
2023-01-19T10:17:33.139Z,99686.19
2023-01-19T10:22:35.531Z,99676.63
2023-01-19T10:27:38.745Z,99672.25
2023-01-19T10:32:40.833Z,99673.22
2023-01-19T10:37:45.002Z,99678.50
2023-01-19T10:42:47.065Z,99690.72
2023-01-19T10:47:50.143Z,99695.09
2023-01-19T10:52:53.113Z,99699.50
2023-01-19T10:57:55.795Z,99689.06
2023-01-19T11:02:58.041Z,99689.13
2023-01-19T11:08:00.545Z,99676.03
2023-01-19T11:13:12.825Z,99683.03
2023-01-19T11:18:29.872Z,99676.97
2023-01-19T11:23:42.254Z,99668.25
2023-01-19T11:28:49.009Z,99661.25
2023-01-19T11:33:53.356Z,99670.94
2023-01-19T11:38:57.922Z,99662.22
2023-01-19T11:44:22.447Z,99660.44
2023-01-19T11:49:54.460Z,99669.22
2023-01-19T11:55:12.743Z,99674.50
2023-01-19T12:00:38.770Z,99675.38
2023-01-19T12:05:48.123Z,99669.28
2023-01-19T12:10:53.333Z,99658.84
2023-01-19T12:16:13.963Z,99658.84
2023-01-19T12:21:16.068Z,99642.28
2023-01-19T12:26:18.097Z,99644.91
2023-01-19T12:31:23.002Z,99651.94
2023-01-19T12:36:31.041Z,99642.34
2023-01-19T12:41:41.372Z,99642.34
2023-01-19T12:46:52.550Z,99644.97
2023-01-19T12:52:27.076Z,99637.16
2023-01-19T12:57:57.045Z,99640.66
2023-01-19T13:03:05.453Z,99644.16
2023-01-19T13:08:08.181Z,99640.69
2023-01-19T13:13:28.380Z,99648.53
2023-01-19T13:18:35.407Z,99643.31
2023-01-19T13:23:52.311Z,99658.19
2023-01-19T13:29:11.397Z,99656.47
2023-01-19T13:34:40.903Z,99662.56
2023-01-19T13:39:45.412Z,99663.47
2023-01-19T13:44:54.986Z,99671.34
2023-01-19T13:49:58.756Z,99669.56
2023-01-19T13:55:03.953Z,99665.22
2023-01-19T14:00:17.607Z,99666.06
2023-01-19T14:05:29.222Z,99677.44
2023-01-19T14:10:31.817Z,99673.97
2023-01-19T14:15:35.321Z,99685.34
2023-01-19T14:20:37.657Z,99680.09
2023-01-19T14:25:45.216Z,99685.38
2023-01-19T14:30:54.951Z,99688.84
2023-01-19T14:35:57.137Z,99683.59
2023-01-19T14:40:59.214Z,99692.34
2023-01-19T14:46:01.533Z,99692.38
2023-01-19T14:51:05.681Z,99693.25
2023-01-19T14:56:08.105Z,99710.75
2023-01-19T15:01:10.299Z,99700.22
2023-01-19T15:06:16.020Z,99711.59
2023-01-19T15:11:27.057Z,99726.47
2023-01-19T15:16:32.503Z,99719.47
2023-01-19T15:21:34.865Z,99716.88
2023-01-19T15:26:39.127Z,99724.69
2023-01-19T15:31:41.543Z,99724.69
2023-01-19T15:36:44.137Z,99737.78
2023-01-19T15:41:46.146Z,99737.81
2023-01-19T15:46:48.221Z,99742.16
2023-01-19T15:51:50.387Z,99743.06
2023-01-19T15:56:53.147Z,99733.44
2023-01-19T16:01:55.553Z,99747.44
2023-01-19T16:06:57.951Z,99750.91
2023-01-19T16:12:00.048Z,99757.03
2023-01-19T16:17:02.331Z,99750.00
2023-01-19T16:22:05.931Z,99756.09
2023-01-19T16:27:09.307Z,99765.72
2023-01-19T16:32:11.374Z,99768.38
2023-01-19T16:37:13.458Z,99766.59
2023-01-19T16:42:16.890Z,99769.22
2023-01-19T16:47:18.979Z,99764.84
2023-01-19T16:52:21.117Z,99763.09
2023-01-19T16:57:24.823Z,99770.06
2023-01-19T17:02:27.562Z,99777.06
2023-01-19T17:07:29.917Z,99781.44
2023-01-19T17:12:32.400Z,99774.44
2023-01-19T17:17:36.729Z,99780.50
2023-01-19T17:22:39.517Z,99777.03
2023-01-19T17:27:48.919Z,99773.47
2023-01-19T17:32:51.541Z,99782.25
2023-01-19T17:37:55.423Z,99764.75
2023-01-19T17:42:57.723Z,99777.03
2023-01-19T17:48:00.682Z,99763.00
2023-01-19T17:53:03.929Z,99772.59
2023-01-19T17:58:06.810Z,99769.91
2023-01-19T18:03:11.235Z,99778.75
2023-01-19T18:08:14.472Z,99777.84
2023-01-19T18:13:17.345Z,99773.44
2023-01-19T18:18:22.991Z,99769.06
2023-01-19T18:23:32.259Z,99772.56
2023-01-19T18:28:35.574Z,99778.66
2023-01-19T18:33:40.151Z,99783.94
2023-01-19T18:38:44.024Z,99773.41
2023-01-19T18:43:57.532Z,99791.78
2023-01-19T18:49:03.365Z,99777.75
2023-01-19T18:54:17.665Z,99787.41
2023-01-19T18:59:20.874Z,99790.00
2023-01-19T19:04:29.883Z,99793.50
2023-01-19T19:09:36.107Z,99794.34
2023-01-19T19:14:39.467Z,99800.44
2023-01-19T19:19:43.005Z,99796.03
2023-01-19T19:24:46.102Z,99795.19
2023-01-19T19:29:49.624Z,99804.78
2023-01-19T19:35:01.356Z,99803.91
2023-01-19T19:40:08.121Z,99805.66
2023-01-19T19:45:20.082Z,99816.16
2023-01-19T19:50:23.860Z,99813.53
2023-01-19T19:55:34.120Z,99814.34
2023-01-19T20:00:37.486Z,99822.19
2023-01-19T20:05:45.481Z,99825.72
2023-01-19T20:11:00.541Z,99832.69
2023-01-19T20:16:08.446Z,99830.06
2023-01-19T20:21:17.747Z,99831.84
2023-01-19T20:26:26.203Z,99837.03
2023-01-19T20:31:34.693Z,99837.91
2023-01-19T20:42:51.334Z,99844.88
2023-01-19T20:47:56.680Z,99851.00
2023-01-19T20:52:59.682Z,99859.72
2023-01-19T20:58:04.624Z,99864.09
2023-01-19T21:03:08.097Z,99870.19
2023-01-19T21:08:10.599Z,99867.56
2023-01-19T21:13:14.608Z,99867.56
2023-01-19T21:18:18.128Z,99865.69
2023-01-19T21:23:21.090Z,99879.75
2023-01-19T21:28:39.617Z,99883.25
2023-01-19T21:33:45.465Z,99893.72
2023-01-19T21:38:53.893Z,99897.16
2023-01-19T21:44:01.537Z,99915.53
2023-01-19T21:49:16.189Z,99921.59
2023-01-19T21:54:27.851Z,99931.22
2023-01-19T21:59:32.525Z,99925.06
2023-01-19T22:04:37.304Z,99932.06
2023-01-19T22:09:40.154Z,99926.75
2023-01-19T22:14:44.332Z,99938.09
2023-01-19T22:19:49.479Z,99945.94
2023-01-19T22:24:51.655Z,99959.00
2023-01-19T22:29:54.103Z,99962.47
2023-01-19T22:34:56.155Z,99962.53
2023-01-19T22:39:58.193Z,99965.94
2023-01-19T22:45:00.272Z,99975.53
2023-01-19T22:50:02.519Z,99971.16
2023-01-19T22:55:04.883Z,99980.75
2023-01-19T23:00:09.502Z,99978.06
2023-01-19T23:05:11.748Z,99981.53
2023-01-19T23:10:15.736Z,100006.00
2023-01-19T23:15:18.315Z,100001.63
2023-01-19T23:20:20.945Z,100002.47
2023-01-19T23:25:22.955Z,100012.88
2023-01-19T23:30:25.108Z,100010.22
2023-01-19T23:35:27.486Z,100011.97
2023-01-19T23:40:29.610Z,100020.59
2023-01-19T23:45:31.908Z,100037.25
2023-01-19T23:50:33.979Z,100041.59
2023-01-19T23:55:36.204Z,100039.75
